LECO Airport Information

Runway Information
Runway 03 Length 6358 ft width 148 ft
Elevation 327 ft Threshold 0 ft Heading 31
Runway 21 Length 6358 ft Width 148 ft
Elevation 286 ft Threshold 0 ft Heading 211
Airport Frequencies
Type APP Name SANTIAGO A Frequency 120.2 MHZ
Type GND Name GND Frequency 121.7 MHZ
Type TWR Name A Coruña T Frequency 118.3 MHZ
Airport Navaids
Type NDB Name La Coruna Frequency 401 KHZ
Type VOR-DME Name La Coruna Frequency 115100 KHZ
Airport Weather Information & NOTAM
ADDS - METARS form results

(1421 UTC 24 June 2021)
Data provider http://aviationweather.gov/metar/data/
 
METAR text: LECO 241400Z 35008KT 320V060 CAVOK 21/14 Q1022 NOSIG
Conditions at: LECO (LA CORUNA/ALVEDR, ES) observed 1400 UTC 24 June 2021
Temperature: 21.0°C (70°F)
Dewpoint: 14.0°C (57°F) [RH = 64%]
Pressure (altimeter): 30.18 inches Hg (1022.0 mb)
Winds: from the N (350 degrees) at 9 MPH (8 knots; 4.1 m/s)
Visibility: 6 or more miles (10+ km)
Ceiling: ceiling and visibility are OK
Clouds: unknown
Weather: no significant weather observed at this time

METAR text: LECO 241330Z 36009KT 320V050 CAVOK 20/14 Q1022 NOSIG
Conditions at: LECO (LA CORUNA/ALVEDR, ES) observed 1330 UTC 24 June 2021
Temperature: 20.0°C (68°F)
Dewpoint: 14.0°C (57°F) [RH = 68%]
Pressure (altimeter): 30.18 inches Hg (1022.0 mb)
Winds: from the N (360 degrees) at 10 MPH (9 knots; 4.6 m/s)
Visibility: 6 or more miles (10+ km)
Ceiling: ceiling and visibility are OK
Clouds: unknown
Weather: no significant weather observed at this time

Forecast for: LECO (LA CORUNA/ALVEDR, ES)
Text: TAF LECO 240800Z 2409/2509 01008KT CAVOK TX22/2415Z TN09/2505Z
Forecast period: 0900 UTC 24 June 2021 to 0900 UTC 25 June 2021
Forecast type: FROM: standard forecast or significant change
Winds: from the N (10 degrees) at 9 MPH (8 knots; 4.1 m/s)
Visibility: 6 or more miles (10+ km)
Ceiling: unknown
Clouds: missing
Weather: no significant weather forecast for this period
Text: PROB40
Forecast period: 0000 to 0700 UTC 25 June 2021
Forecast type: TEMPORARY: The following changes expected for less than half the time period
Visibility: 1.86 miles (2.99 km)
Ceiling: unknown
Clouds: missing
Weather: BR  (mist)
Text: TEMPO 2500/2507 3000 BR
Forecast period: 0500 to 0700 UTC 25 June 2021
Forecast type: TEMPORARY: The following changes expected for less than half the time period
Visibility: 0.93 miles (1.50 km)
Ceiling: 300 feet AGL
Clouds: broken clouds at 300 feet AGL
Weather: BR BCFG  (mist, patches of fog)